createdAt,value
2024-05-09T00:00:41.967Z,18.85
2024-05-09T00:03:10.642Z,18.87
2024-05-09T00:05:42.953Z,18.87
2024-05-09T00:08:10.572Z,18.89
2024-05-09T00:10:39.408Z,18.91
2024-05-09T00:13:08.119Z,18.91
2024-05-09T00:15:36.168Z,18.92
2024-05-09T00:18:08.077Z,18.94
2024-05-09T00:20:39.301Z,18.95
2024-05-09T00:23:13.400Z,18.99
2024-05-09T00:25:44.224Z,19.02
2024-05-09T00:28:11.990Z,19.05
2024-05-09T00:30:39.335Z,19.08
2024-05-09T00:33:08.371Z,19.08
2024-05-09T00:35:37.214Z,19.09
2024-05-09T00:38:04.681Z,19.10
2024-05-09T00:40:43.196Z,19.11
2024-05-09T00:43:12.203Z,19.11
2024-05-09T00:45:40.630Z,19.11
2024-05-09T00:48:09.030Z,19.12
2024-05-09T00:50:39.344Z,19.12
2024-05-09T00:53:06.810Z,19.13
2024-05-09T00:55:35.414Z,19.14
2024-05-09T00:58:04.037Z,19.16
2024-05-09T01:00:37.956Z,19.17
2024-05-09T01:03:08.709Z,19.18
2024-05-09T01:05:38.409Z,19.21
2024-05-09T01:08:06.448Z,19.21
2024-05-09T01:10:35.546Z,19.22
2024-05-09T01:13:04.329Z,19.23
2024-05-09T01:15:32.104Z,19.24
2024-05-09T01:18:05.810Z,19.24
2024-05-09T01:20:40.934Z,19.25
2024-05-09T01:23:11.863Z,19.25
2024-05-09T01:25:39.528Z,19.26
2024-05-09T01:28:07.163Z,19.27
2024-05-09T01:30:36.942Z,19.27
2024-05-09T01:33:07.297Z,19.27
2024-05-09T01:35:36.438Z,19.26
2024-05-09T01:38:04.372Z,19.25
2024-05-09T01:40:37.383Z,19.25
2024-05-09T01:43:08.130Z,19.25
2024-05-09T01:45:36.047Z,19.25
2024-05-09T01:48:04.120Z,19.26
2024-05-09T01:53:01.998Z,19.28
2024-05-09T01:55:29.293Z,19.28
2024-05-09T01:57:56.370Z,19.29
2024-05-09T02:00:36.356Z,19.31
2024-05-09T02:03:08.758Z,19.30
2024-05-09T02:05:36.736Z,19.29
2024-05-09T02:08:05.215Z,19.28
2024-05-09T02:10:33.326Z,19.27
2024-05-09T02:13:00.787Z,19.26
2024-05-09T02:15:27.897Z,19.26
2024-05-09T02:17:55.613Z,19.29
2024-05-09T02:20:30.524Z,19.29
2024-05-09T02:23:04.656Z,19.29
2024-05-09T02:25:32.374Z,19.28
2024-05-09T02:28:00.075Z,19.27
2024-05-09T02:30:37.739Z,19.27
2024-05-09T02:33:12.821Z,19.27
2024-05-09T02:35:42.073Z,19.25
2024-05-09T02:38:09.529Z,19.23
2024-05-09T02:40:38.915Z,19.23
2024-05-09T02:43:07.995Z,19.22
2024-05-09T02:45:35.676Z,19.22
2024-05-09T02:48:03.159Z,19.21
2024-05-09T02:50:37.776Z,19.23
2024-05-09T02:53:14.289Z,19.23
2024-05-09T02:55:41.719Z,19.23
2024-05-09T02:58:09.466Z,19.23
2024-05-09T03:00:40.390Z,19.23
2024-05-09T03:03:11.801Z,19.24
2024-05-09T03:05:42.274Z,19.22
2024-05-09T03:08:09.802Z,19.20
2024-05-09T03:10:38.712Z,19.19
2024-05-09T03:13:15.777Z,19.19
2024-05-09T03:15:44.038Z,19.20
2024-05-09T03:18:11.798Z,19.20
2024-05-09T03:20:39.860Z,19.20
2024-05-09T03:23:07.183Z,19.20
2024-05-09T03:25:34.747Z,19.20
2024-05-09T03:28:01.980Z,19.21
2024-05-09T03:30:36.279Z,19.22
2024-05-09T03:33:16.637Z,19.23
2024-05-09T03:35:44.530Z,19.24
2024-05-09T03:38:11.856Z,19.24
2024-05-09T03:40:49.629Z,19.26
2024-05-09T03:43:18.135Z,19.27
2024-05-09T03:45:47.537Z,19.28
2024-05-09T03:48:14.612Z,19.30
2024-05-09T03:50:42.100Z,19.32
2024-05-09T03:53:10.265Z,19.35
2024-05-09T03:55:37.460Z,19.36
2024-05-09T03:58:07.227Z,19.36
2024-05-09T04:00:38.514Z,19.37
2024-05-09T04:03:09.659Z,19.38
2024-05-09T04:05:39.978Z,19.39
2024-05-09T04:08:08.252Z,19.39
2024-05-09T04:10:35.813Z,19.40
2024-05-09T04:13:03.671Z,19.43
2024-05-09T04:15:31.346Z,19.46
2024-05-09T04:17:58.965Z,19.48
2024-05-09T04:20:37.241Z,19.50
2024-05-09T04:23:09.835Z,19.52
2024-05-09T04:25:37.078Z,19.53
2024-05-09T04:28:05.175Z,19.53
2024-05-09T04:30:38.600Z,19.53
2024-05-09T04:33:11.408Z,19.54
2024-05-09T04:35:41.539Z,19.54
2024-05-09T04:38:08.803Z,19.55
2024-05-09T04:40:37.366Z,19.55
2024-05-09T04:43:05.585Z,19.55
2024-05-09T04:45:32.793Z,19.54
2024-05-09T04:48:00.392Z,19.55
2024-05-09T04:50:36.096Z,19.55
2024-05-09T04:53:07.817Z,19.56
2024-05-09T04:55:36.697Z,19.56
2024-05-09T04:58:05.117Z,19.56
2024-05-09T05:00:36.834Z,19.56
2024-05-09T05:03:08.722Z,19.55
2024-05-09T05:05:39.723Z,19.55
2024-05-09T05:08:14.792Z,19.56
2024-05-09T05:10:42.579Z,19.57
2024-05-09T05:13:22.168Z,19.60
2024-05-09T05:15:55.919Z,19.62
2024-05-09T05:18:23.848Z,19.67
2024-05-09T05:20:51.643Z,19.71
2024-05-09T05:23:19.780Z,19.73
2024-05-09T05:25:48.265Z,19.79
2024-05-09T05:28:15.967Z,19.87
2024-05-09T05:30:43.311Z,19.95
2024-05-09T05:33:14.721Z,20.05
2024-05-09T05:35:42.680Z,20.19
2024-05-09T05:38:10.157Z,20.40
2024-05-09T05:40:40.114Z,20.70
2024-05-09T05:43:09.352Z,20.98
2024-05-09T05:45:36.673Z,21.21
2024-05-09T05:48:04.822Z,21.38
2024-05-09T05:50:36.200Z,21.51
2024-05-09T05:53:06.377Z,21.62
2024-05-09T05:55:33.582Z,21.67
2024-05-09T05:58:04.425Z,21.68
2024-05-09T06:00:38.029Z,21.67
2024-05-09T06:03:08.024Z,21.67
2024-05-09T06:05:36.549Z,21.68
2024-05-09T06:08:04.423Z,21.71
2024-05-09T06:10:38.052Z,21.74
2024-05-09T06:13:10.171Z,21.81
2024-05-09T06:15:37.363Z,21.90
2024-05-09T06:18:06.441Z,21.98
2024-05-09T06:20:36.609Z,22.05
2024-05-09T06:23:05.808Z,22.08
2024-05-09T06:25:33.615Z,22.05
2024-05-09T06:28:00.754Z,21.98
2024-05-09T06:30:36.966Z,21.93
2024-05-09T06:33:08.815Z,21.90
2024-05-09T06:35:36.846Z,21.86
2024-05-09T06:38:04.841Z,21.85
2024-05-09T06:40:38.301Z,21.83
2024-05-09T06:43:18.214Z,21.86
2024-05-09T06:45:48.235Z,21.91
2024-05-09T06:48:17.900Z,22.03
2024-05-09T06:50:45.260Z,22.16
2024-05-09T06:53:15.739Z,22.31
2024-05-09T06:55:43.084Z,22.48
2024-05-09T06:58:10.093Z,22.56
2024-05-09T07:00:40.068Z,22.58
2024-05-09T07:03:09.388Z,22.52
2024-05-09T07:05:37.095Z,22.39
2024-05-09T07:08:05.487Z,22.19
2024-05-09T07:10:35.570Z,22.05
2024-05-09T07:13:10.564Z,21.98
2024-05-09T07:15:37.990Z,21.90
2024-05-09T07:18:12.159Z,21.79
2024-05-09T07:20:39.930Z,21.65
2024-05-09T07:23:11.846Z,21.50
2024-05-09T07:25:39.698Z,21.36
2024-05-09T07:28:17.030Z,21.26
2024-05-09T07:30:44.819Z,21.18
2024-05-09T07:33:19.878Z,21.15
2024-05-09T07:35:48.823Z,21.08
2024-05-09T07:38:16.286Z,21.04
2024-05-09T07:40:43.606Z,21.09
2024-05-09T07:43:16.705Z,21.17
2024-05-09T07:45:51.700Z,21.29
2024-05-09T07:53:39.458Z,21.90
2024-05-09T07:56:11.405Z,22.06
2024-05-09T07:58:38.983Z,22.10
2024-05-09T08:01:06.496Z,22.16
2024-05-09T08:03:34.375Z,22.26
2024-05-09T08:06:01.766Z,22.31
2024-05-09T08:08:29.646Z,22.38
2024-05-09T08:10:56.651Z,22.47
2024-05-09T08:13:23.768Z,22.58
2024-05-09T08:15:52.006Z,22.64
2024-05-09T08:18:20.149Z,22.71
2024-05-09T08:20:48.339Z,22.78
2024-05-09T08:23:15.620Z,22.82
2024-05-09T08:25:43.043Z,22.88
2024-05-09T08:28:10.761Z,22.90
2024-05-09T08:30:38.484Z,22.90
2024-05-09T08:33:06.948Z,22.90
2024-05-09T08:35:35.490Z,22.89
2024-05-09T08:38:03.566Z,22.89
2024-05-09T08:40:35.285Z,22.87
2024-05-09T08:43:08.585Z,22.78
2024-05-09T08:45:38.325Z,22.66
2024-05-09T08:48:07.977Z,22.68
2024-05-09T08:50:39.399Z,22.89
2024-05-09T08:53:08.041Z,22.97
2024-05-09T08:55:39.259Z,22.99
2024-05-09T08:58:11.884Z,23.02
2024-05-09T09:00:39.288Z,23.07
2024-05-09T09:03:07.392Z,23.13
2024-05-09T09:05:34.868Z,23.19
2024-05-09T09:08:03.918Z,23.24
2024-05-09T09:10:32.528Z,23.30
2024-05-09T09:13:03.359Z,23.34
2024-05-09T09:15:30.721Z,23.40
2024-05-09T09:17:58.905Z,23.45
2024-05-09T09:20:34.066Z,23.48
2024-05-09T09:23:04.745Z,23.49
2024-05-09T09:25:32.269Z,23.46
2024-05-09T09:27:59.601Z,23.43
2024-05-09T09:30:34.918Z,23.42
2024-05-09T09:33:06.082Z,23.45
2024-05-09T09:35:35.367Z,23.50
2024-05-09T09:38:03.034Z,23.50
2024-05-09T09:40:37.283Z,23.53
2024-05-09T09:43:14.282Z,23.34
2024-05-09T09:45:43.530Z,23.19
2024-05-09T09:48:11.723Z,23.13
2024-05-09T09:50:39.404Z,23.12
2024-05-09T09:53:06.735Z,23.24
2024-05-09T09:55:33.776Z,23.33
2024-05-09T09:58:01.371Z,23.32
2024-05-09T10:00:33.028Z,23.39
2024-05-09T10:03:01.955Z,23.49
2024-05-09T10:05:29.578Z,23.59
2024-05-09T10:07:57.027Z,23.55
2024-05-09T10:10:31.596Z,23.62
2024-05-09T10:13:04.263Z,23.73
2024-05-09T10:15:50.565Z,23.80
2024-05-09T10:18:24.760Z,23.89
2024-05-09T10:20:54.161Z,23.94
2024-05-09T10:23:28.146Z,23.95
2024-05-09T10:25:59.610Z,23.96
2024-05-09T10:28:30.838Z,23.92
2024-05-09T10:31:10.870Z,23.84
2024-05-09T10:33:47.947Z,23.86
2024-05-09T10:36:22.919Z,23.88
2024-05-09T10:38:51.085Z,23.88
2024-05-09T10:41:18.724Z,23.85
2024-05-09T10:43:46.322Z,23.81
2024-05-09T10:46:14.322Z,23.79
2024-05-09T10:48:42.695Z,23.73
2024-05-09T10:51:09.953Z,23.69
2024-05-09T10:53:43.919Z,23.67
2024-05-09T10:56:11.170Z,23.68
2024-05-09T10:58:38.336Z,23.65
2024-05-09T11:01:07.130Z,23.54
2024-05-09T11:03:35.519Z,23.46
2024-05-09T11:06:03.274Z,23.48
2024-05-09T11:08:31.154Z,23.58
2024-05-09T11:10:59.080Z,23.67
2024-05-09T11:13:30.026Z,23.78
2024-05-09T11:15:57.904Z,23.86
2024-05-09T11:18:28.152Z,23.95
2024-05-09T11:20:57.112Z,24.03
2024-05-09T11:23:26.086Z,24.13
2024-05-09T11:25:54.790Z,24.22
2024-05-09T11:28:22.570Z,24.30
2024-05-09T11:30:50.174Z,24.32
2024-05-09T11:33:20.169Z,24.30
2024-05-09T11:35:47.411Z,24.21
2024-05-09T11:38:14.497Z,24.06
2024-05-09T11:40:42.256Z,23.93
2024-05-09T11:43:09.706Z,23.86
2024-05-09T11:45:36.941Z,23.78
2024-05-09T11:48:04.850Z,23.73
2024-05-09T11:50:35.596Z,23.69
2024-05-09T11:53:03.566Z,23.64
2024-05-09T11:55:33.191Z,23.59
2024-05-09T11:58:00.420Z,23.57
2024-05-09T12:00:34.161Z,23.56
2024-05-09T12:03:05.757Z,23.50
2024-05-09T12:05:34.226Z,23.44
2024-05-09T12:08:02.006Z,23.43
2024-05-09T12:10:33.742Z,23.47
2024-05-09T12:13:04.147Z,23.52
2024-05-09T12:15:35.380Z,23.55
2024-05-09T12:18:03.929Z,23.57
2024-05-09T12:20:37.219Z,23.64
2024-05-09T12:23:08.820Z,23.75
2024-05-09T12:25:37.868Z,23.88
2024-05-09T12:28:05.490Z,24.00
2024-05-09T12:30:37.467Z,24.12
2024-05-09T12:33:10.304Z,24.21
2024-05-09T12:35:38.071Z,24.28
2024-05-09T12:38:05.198Z,24.36
2024-05-09T12:40:36.934Z,24.44
2024-05-09T12:43:06.753Z,24.52
2024-05-09T12:45:34.251Z,24.58
2024-05-09T12:48:01.585Z,24.63
2024-05-09T12:50:32.694Z,24.63
2024-05-09T12:53:02.588Z,24.59
2024-05-09T12:55:37.343Z,24.57
2024-05-09T12:58:11.978Z,24.58
2024-05-09T13:00:39.668Z,24.59
2024-05-09T13:03:07.047Z,24.60
2024-05-09T13:05:34.653Z,24.62
2024-05-09T13:08:03.135Z,24.62
2024-05-09T13:10:32.824Z,24.63
2024-05-09T13:13:01.694Z,24.64
2024-05-09T13:15:30.019Z,24.64
2024-05-09T13:18:00.259Z,24.66
2024-05-09T13:20:33.725Z,24.65
2024-05-09T13:23:04.022Z,24.62
2024-05-09T13:25:31.646Z,24.60
2024-05-09T13:27:58.799Z,24.54
2024-05-09T13:30:34.329Z,24.49
2024-05-09T13:33:07.152Z,24.47
2024-05-09T13:35:35.511Z,24.45
2024-05-09T13:38:03.844Z,24.45
2024-05-09T13:40:34.677Z,24.49
2024-05-09T13:43:04.566Z,24.54
2024-05-09T13:45:32.802Z,24.63
2024-05-09T13:48:01.920Z,24.70
2024-05-09T13:50:34.423Z,24.74
2024-05-09T13:53:04.213Z,24.79
2024-05-09T13:55:31.505Z,24.85
2024-05-09T13:57:58.695Z,24.90
2024-05-09T14:00:38.017Z,24.96
2024-05-09T14:03:12.211Z,25.01
2024-05-09T14:05:39.451Z,25.04
2024-05-09T14:08:08.144Z,25.08
2024-05-09T14:10:35.350Z,25.13
2024-05-09T14:13:02.850Z,25.18
2024-05-09T14:15:30.153Z,25.22
2024-05-09T14:17:57.514Z,25.22
2024-05-09T14:20:30.997Z,25.20
2024-05-09T14:23:00.384Z,25.17
2024-05-09T14:25:29.300Z,25.14
2024-05-09T14:27:59.551Z,25.13
2024-05-09T14:30:34.686Z,25.15
2024-05-09T14:33:06.362Z,25.16
2024-05-09T14:35:34.414Z,25.18
2024-05-09T14:38:01.890Z,25.19
2024-05-09T14:40:40.200Z,25.19
2024-05-09T14:43:11.645Z,25.18
2024-05-09T14:45:38.981Z,25.16
2024-05-09T14:48:07.034Z,25.20
2024-05-09T14:50:38.156Z,25.12
2024-05-09T14:53:08.333Z,25.02
2024-05-09T14:55:36.901Z,25.12
2024-05-09T14:58:11.420Z,25.08
2024-05-09T15:00:46.507Z,25.15
2024-05-09T15:03:19.097Z,25.13
2024-05-09T15:05:46.765Z,25.08
2024-05-09T15:08:14.003Z,25.03
2024-05-09T15:10:41.305Z,24.97
2024-05-09T15:13:10.360Z,24.91
2024-05-09T15:15:39.856Z,24.86
2024-05-09T15:18:07.214Z,24.84
2024-05-09T15:20:36.645Z,24.81
2024-05-09T15:23:04.869Z,24.80
2024-05-09T15:25:35.139Z,24.78
2024-05-09T15:28:02.640Z,24.77
2024-05-09T15:30:32.773Z,24.77
2024-05-09T15:33:04.733Z,24.78
2024-05-09T15:35:32.760Z,24.79
2024-05-09T15:37:59.936Z,24.75
2024-05-09T15:40:36.057Z,24.71
2024-05-09T15:43:07.899Z,24.67
2024-05-09T15:45:35.838Z,24.61
2024-05-09T15:48:03.766Z,24.58
2024-05-09T15:50:37.963Z,24.54
2024-05-09T15:53:09.842Z,24.50
2024-05-09T15:55:37.881Z,24.45
2024-05-09T15:58:05.496Z,24.38
2024-05-09T16:00:38.208Z,24.33
2024-05-09T16:03:13.242Z,24.28
2024-05-09T16:05:47.918Z,24.24
2024-05-09T16:08:15.716Z,24.19
2024-05-09T16:10:45.714Z,24.14
2024-05-09T16:13:14.713Z,24.09
2024-05-09T16:15:43.021Z,24.04
2024-05-09T16:18:10.406Z,23.99
2024-05-09T16:20:40.740Z,23.92
2024-05-09T16:23:09.973Z,23.87
2024-05-09T16:25:38.359Z,23.81
2024-05-09T16:28:08.832Z,23.75
2024-05-09T16:30:38.447Z,23.70
2024-05-09T16:33:06.267Z,23.66
2024-05-09T16:35:34.099Z,23.61
2024-05-09T16:38:01.888Z,23.58
2024-05-09T16:40:37.077Z,23.54
2024-05-09T16:43:12.007Z,23.52
2024-05-09T16:45:40.803Z,23.49
2024-05-09T16:48:08.393Z,23.47
2024-05-09T16:50:36.472Z,23.44
2024-05-09T16:53:05.182Z,23.42
2024-05-09T16:55:34.042Z,23.39
2024-05-09T16:58:01.587Z,23.35
2024-05-09T17:00:38.341Z,23.31
2024-05-09T17:03:11.910Z,23.27
2024-05-09T17:05:40.344Z,23.24
2024-05-09T17:08:08.062Z,23.22
2024-05-09T17:10:36.229Z,23.18
2024-05-09T17:13:04.851Z,23.16
2024-05-09T17:15:33.801Z,23.13
2024-05-09T17:18:02.087Z,23.10
2024-05-09T17:20:33.881Z,23.08
2024-05-09T17:23:04.001Z,23.05
2024-05-09T17:25:31.485Z,23.02
2024-05-09T17:28:07.071Z,22.98
2024-05-09T17:30:37.689Z,22.95
2024-05-09T17:33:07.651Z,22.92
2024-05-09T17:35:35.567Z,22.84
2024-05-09T17:38:03.964Z,22.76
2024-05-09T17:40:34.862Z,22.80
2024-05-09T17:43:05.946Z,22.81
2024-05-09T17:45:33.860Z,22.79
2024-05-09T17:48:01.667Z,22.77
2024-05-09T17:50:35.505Z,22.75
2024-05-09T17:53:05.299Z,22.73
2024-05-09T17:55:32.886Z,22.72
2024-05-09T17:58:00.422Z,22.71
2024-05-09T18:00:36.869Z,22.69
2024-05-09T18:03:08.054Z,22.66
2024-05-09T18:05:36.967Z,22.64
2024-05-09T18:08:06.080Z,22.62
2024-05-09T18:10:37.329Z,22.60
2024-05-09T18:13:11.079Z,22.59
2024-05-09T18:15:39.201Z,22.57
2024-05-09T18:18:06.940Z,22.56
2024-05-09T18:20:42.368Z,22.55
2024-05-09T18:23:13.993Z,22.55
2024-05-09T18:25:41.804Z,22.54
2024-05-09T18:28:09.082Z,22.53
2024-05-09T18:30:37.427Z,22.53
2024-05-09T18:33:07.168Z,22.53
2024-05-09T18:35:35.870Z,22.52
2024-05-09T18:38:04.403Z,22.52
2024-05-09T18:40:35.653Z,22.51
2024-05-09T18:43:06.257Z,22.49
2024-05-09T18:45:35.777Z,22.45
2024-05-09T18:48:04.465Z,22.44
2024-05-09T18:50:36.043Z,22.44
2024-05-09T18:53:06.535Z,22.41
2024-05-09T18:55:34.263Z,22.40
2024-05-09T18:58:01.531Z,22.42
2024-05-09T19:00:35.044Z,22.41
2024-05-09T19:03:07.731Z,22.39
2024-05-09T19:05:36.446Z,22.37
2024-05-09T19:08:04.031Z,22.35
2024-05-09T19:10:34.628Z,22.34
2024-05-09T19:13:07.308Z,22.33
2024-05-09T19:15:39.237Z,22.32
2024-05-09T19:18:07.037Z,22.29
2024-05-09T19:20:36.376Z,22.24
2024-05-09T19:23:05.182Z,22.23
2024-05-09T19:25:32.701Z,22.26
2024-05-09T19:28:00.145Z,22.26
2024-05-09T19:30:36.563Z,22.24
2024-05-09T19:33:08.579Z,22.23
2024-05-09T19:35:36.246Z,22.22
2024-05-09T19:38:04.433Z,22.19
2024-05-09T19:40:33.475Z,22.18
2024-05-09T19:43:03.018Z,22.16
2024-05-09T19:45:32.344Z,22.15
2024-05-09T19:47:59.700Z,22.12
2024-05-09T19:50:36.540Z,22.12
2024-05-09T19:53:09.407Z,22.10
2024-05-09T19:55:36.882Z,22.08
2024-05-09T19:58:06.428Z,22.06
2024-05-09T20:00:37.015Z,22.04
2024-05-09T20:03:06.697Z,22.02
2024-05-09T20:05:34.655Z,22.00
2024-05-09T20:08:02.130Z,21.97
2024-05-09T20:10:32.733Z,21.94
2024-05-09T20:13:03.697Z,21.90
2024-05-09T20:15:32.795Z,21.87
2024-05-09T20:17:59.952Z,21.83
2024-05-09T20:20:36.112Z,21.80
2024-05-09T20:23:08.599Z,21.76
2024-05-09T20:25:35.667Z,21.72
2024-05-09T20:28:03.349Z,21.69
2024-05-09T20:30:33.052Z,21.65
2024-05-09T20:33:02.468Z,21.62
2024-05-09T20:35:31.553Z,21.59
2024-05-09T20:37:58.808Z,21.54
2024-05-09T20:40:32.497Z,21.52
2024-05-09T20:43:03.280Z,21.48
2024-05-09T20:45:30.643Z,21.44
2024-05-09T20:47:58.242Z,21.41
2024-05-09T20:50:35.721Z,21.37
2024-05-09T20:53:08.570Z,21.32
2024-05-09T20:55:35.749Z,21.28
2024-05-09T20:58:03.004Z,21.23
2024-05-09T21:00:39.194Z,21.20
2024-05-09T21:03:10.503Z,21.16
2024-05-09T21:05:38.440Z,21.13
2024-05-09T21:08:06.954Z,21.09
2024-05-09T21:10:35.334Z,21.02
2024-05-09T21:13:03.512Z,20.98
2024-05-09T21:15:31.596Z,20.95
2024-05-09T21:17:59.049Z,20.92
2024-05-09T21:20:31.737Z,20.87
2024-05-09T21:23:00.702Z,20.83
2024-05-09T21:25:27.947Z,20.80
2024-05-09T21:27:55.546Z,20.76
2024-05-09T21:30:32.206Z,20.72
2024-05-09T21:33:08.485Z,20.69
2024-05-09T21:35:36.064Z,20.65
2024-05-09T21:38:04.081Z,20.61
2024-05-09T21:40:34.804Z,20.61
2024-05-09T21:43:05.053Z,20.61
2024-05-09T21:45:33.447Z,20.60
2024-05-09T21:48:02.952Z,20.58
2024-05-09T21:50:37.028Z,20.56
2024-05-09T21:53:07.854Z,20.55
2024-05-09T21:55:35.721Z,20.55
2024-05-09T21:58:03.809Z,20.55
2024-05-09T22:00:36.792Z,20.55
2024-05-09T22:03:06.732Z,20.54
2024-05-09T22:05:34.623Z,20.53
2024-05-09T22:08:02.346Z,20.52
2024-05-09T22:10:34.481Z,20.51
2024-05-09T22:13:05.299Z,20.50
2024-05-09T22:15:37.679Z,20.49
2024-05-09T22:18:07.021Z,20.49
2024-05-09T22:20:37.980Z,20.50
2024-05-09T22:23:07.665Z,20.51
2024-05-09T22:25:35.919Z,20.51
2024-05-09T22:28:03.776Z,20.52
2024-05-09T22:30:36.431Z,20.51
2024-05-09T22:33:08.024Z,20.51
2024-05-09T22:35:35.495Z,20.51
2024-05-09T22:38:03.135Z,20.51
2024-05-09T22:40:39.010Z,20.49
2024-05-09T22:43:24.965Z,20.49
2024-05-09T22:45:53.820Z,20.48
2024-05-09T22:48:21.160Z,20.47
2024-05-09T22:50:48.533Z,20.46
2024-05-09T22:53:15.569Z,20.46
2024-05-09T22:55:42.801Z,20.46
2024-05-09T22:58:10.048Z,20.46
2024-05-09T23:00:37.418Z,20.44
2024-05-09T23:03:05.069Z,20.43
2024-05-09T23:05:32.830Z,20.42
2024-05-09T23:08:00.876Z,20.42
2024-05-09T23:10:35.172Z,20.41
2024-05-09T23:13:05.975Z,20.40
2024-05-09T23:15:33.332Z,20.41
2024-05-09T23:18:00.554Z,20.40
2024-05-09T23:20:36.222Z,20.40
2024-05-09T23:23:10.257Z,20.38
2024-05-09T23:25:40.631Z,20.38
2024-05-09T23:28:07.727Z,20.38
2024-05-09T23:30:38.894Z,20.36
2024-05-09T23:33:11.957Z,20.34
2024-05-09T23:35:40.484Z,20.32
2024-05-09T23:38:07.620Z,20.31
2024-05-09T23:40:38.762Z,20.30
2024-05-09T23:43:10.002Z,20.28
2024-05-09T23:45:37.607Z,20.26
2024-05-09T23:48:05.736Z,20.26
2024-05-09T23:50:36.343Z,20.26
2024-05-09T23:53:06.101Z,20.25
2024-05-09T23:55:33.847Z,20.23
2024-05-09T23:58:01.228Z,20.22
